Norfolk, Massachusetts
Current Conditions -  °F | °C
As of 10:53 AM on Monday 26 Jan 2015 (Local Time) from KOWD Reporting Station
Broken Clouds Broken Clouds  
Wind Chill: 10°   Ceiling: 2200
Heat Index: 19°   Visibility: 10mi
Dew Point:   Wind: 7mph
Humidity: 62%   Direction: 360°N
Pressure: 30.12"   Gusts: NA
Location:  42.12°N, 71.32°W
Report Text: KOWD 261553Z 36006KT 10SM SCT016 BKN022 BKN027 M07/M13 A3012 RMK AO2 SLP201 T10721133
Loading
Personal Weather Stations






























Interactive Weather Map New forecast layout! Learn more

10-Day Weather Forecast

Advertisements
Track Severe Weather on mobile